sensor_id;sensor_type;location;lat;lon;timestamp;temperature;humidity
75985;DHT22;65033;44.660;37.758;2023-02-28T00:00:31;28.49;33.47
75985;DHT22;65033;44.660;37.758;2023-02-28T00:01:34;28.48;33.44
75985;DHT22;65033;44.660;37.758;2023-02-28T00:02:40;28.48;33.44
75985;DHT22;65033;44.660;37.758;2023-02-28T00:03:44;28.49;33.41
75985;DHT22;65033;44.660;37.758;2023-02-28T00:04:47;28.49;33.41
75985;DHT22;65033;44.660;37.758;2023-02-28T00:05:55;28.49;33.41
75985;DHT22;65033;44.660;37.758;2023-02-28T00:06:59;28.50;33.38
75985;DHT22;65033;44.660;37.758;2023-02-28T00:08:03;28.50;33.36
75985;DHT22;65033;44.660;37.758;2023-02-28T00:09:07;28.50;33.38
75985;DHT22;65033;44.660;37.758;2023-02-28T00:10:11;28.52;33.36
75985;DHT22;65033;44.660;37.758;2023-02-28T00:11:15;28.50;33.34
75985;DHT22;65033;44.660;37.758;2023-02-28T00:12:19;28.52;33.34
75985;DHT22;65033;44.660;37.758;2023-02-28T00:13:22;28.50;33.34
75985;DHT22;65033;44.660;37.758;2023-02-28T00:14:25;28.49;33.33
75985;DHT22;65033;44.660;37.758;2023-02-28T00:15:29;28.49;33.31
75985;DHT22;65033;44.660;37.758;2023-02-28T00:16:33;28.50;33.31
75985;DHT22;65033;44.660;37.758;2023-02-28T00:17:37;28.49;33.30
75985;DHT22;65033;44.660;37.758;2023-02-28T00:18:41;28.49;33.28
75985;DHT22;65033;44.660;37.758;2023-02-28T00:19:45;28.49;33.26
75985;DHT22;65033;44.660;37.758;2023-02-28T00:20:48;28.49;33.27
75985;DHT22;65033;44.660;37.758;2023-02-28T00:21:51;28.48;33.26
75985;DHT22;65033;44.660;37.758;2023-02-28T00:22:54;28.49;33.23
75985;DHT22;65033;44.660;37.758;2023-02-28T00:23:59;28.49;33.21
75985;DHT22;65033;44.660;37.758;2023-02-28T00:25:03;28.50;33.22
75985;DHT22;65033;44.660;37.758;2023-02-28T00:26:07;28.50;33.20
75985;DHT22;65033;44.660;37.758;2023-02-28T00:27:12;28.50;33.18
75985;DHT22;65033;44.660;37.758;2023-02-28T00:28:15;28.50;33.17
75985;DHT22;65033;44.660;37.758;2023-02-28T00:29:18;28.52;33.15
75985;DHT22;65033;44.660;37.758;2023-02-28T00:30:22;28.49;33.15
75985;DHT22;65033;44.660;37.758;2023-02-28T00:31:26;28.50;33.15
75985;DHT22;65033;44.660;37.758;2023-02-28T00:32:29;28.52;33.13
75985;DHT22;65033;44.660;37.758;2023-02-28T00:33:33;28.50;33.12
75985;DHT22;65033;44.660;37.758;2023-02-28T00:34:36;28.50;33.12
75985;DHT22;65033;44.660;37.758;2023-02-28T00:35:40;28.50;33.12
75985;DHT22;65033;44.660;37.758;2023-02-28T00:36:44;28.49;33.10
75985;DHT22;65033;44.660;37.758;2023-02-28T00:37:52;28.52;33.09
75985;DHT22;65033;44.660;37.758;2023-02-28T00:38:56;28.50;33.09
75985;DHT22;65033;44.660;37.758;2023-02-28T00:40:01;28.52;33.08
75985;DHT22;65033;44.660;37.758;2023-02-28T00:41:05;28.50;33.09
75985;DHT22;65033;44.660;37.758;2023-02-28T00:42:08;28.50;33.11
75985;DHT22;65033;44.660;37.758;2023-02-28T00:43:11;28.50;33.11
75985;DHT22;65033;44.660;37.758;2023-02-28T00:44:15;28.49;33.09
75985;DHT22;65033;44.660;37.758;2023-02-28T00:45:18;28.49;33.08
75985;DHT22;65033;44.660;37.758;2023-02-28T00:46:21;28.49;33.08
75985;DHT22;65033;44.660;37.758;2023-02-28T00:47:25;28.49;33.07
75985;DHT22;65033;44.660;37.758;2023-02-28T00:48:30;28.48;33.05
75985;DHT22;65033;44.660;37.758;2023-02-28T00:49:33;28.49;33.05
75985;DHT22;65033;44.660;37.758;2023-02-28T00:50:37;28.47;33.05
75985;DHT22;65033;44.660;37.758;2023-02-28T00:51:41;28.48;33.05
75985;DHT22;65033;44.660;37.758;2023-02-28T00:52:44;28.48;33.05
75985;DHT22;65033;44.660;37.758;2023-02-28T00:53:49;28.46;33.07
75985;DHT22;65033;44.660;37.758;2023-02-28T00:54:52;28.46;33.06
75985;DHT22;65033;44.660;37.758;2023-02-28T00:55:57;28.47;33.06
75985;DHT22;65033;44.660;37.758;2023-02-28T00:57:01;28.47;33.05
75985;DHT22;65033;44.660;37.758;2023-02-28T00:58:06;28.47;33.04
75985;DHT22;65033;44.660;37.758;2023-02-28T00:59:09;28.47;33.04
75985;DHT22;65033;44.660;37.758;2023-02-28T01:00:14;28.46;33.05
75985;DHT22;65033;44.660;37.758;2023-02-28T01:01:18;28.47;33.04
75985;DHT22;65033;44.660;37.758;2023-02-28T01:02:22;28.46;33.01
75985;DHT22;65033;44.660;37.758;2023-02-28T01:03:28;28.46;33.01
75985;DHT22;65033;44.660;37.758;2023-02-28T01:04:31;28.47;33.01
75985;DHT22;65033;44.660;37.758;2023-02-28T01:05:36;28.46;33.00
75985;DHT22;65033;44.660;37.758;2023-02-28T01:06:42;28.47;32.99
75985;DHT22;65033;44.660;37.758;2023-02-28T01:07:46;28.48;32.97
75985;DHT22;65033;44.660;37.758;2023-02-28T01:08:49;28.48;32.98
75985;DHT22;65033;44.660;37.758;2023-02-28T01:09:52;28.46;32.96
75985;DHT22;65033;44.660;37.758;2023-02-28T01:10:57;28.47;32.94
75985;DHT22;65033;44.660;37.758;2023-02-28T01:12:00;28.46;32.96
75985;DHT22;65033;44.660;37.758;2023-02-28T01:13:04;28.45;32.99
75985;DHT22;65033;44.660;37.758;2023-02-28T01:14:08;28.46;32.99
75985;DHT22;65033;44.660;37.758;2023-02-28T01:15:12;28.44;33.01
75985;DHT22;65033;44.660;37.758;2023-02-28T01:16:15;28.44;32.98
75985;DHT22;65033;44.660;37.758;2023-02-28T01:17:20;28.46;32.97
75985;DHT22;65033;44.660;37.758;2023-02-28T01:18:23;28.46;32.96
75985;DHT22;65033;44.660;37.758;2023-02-28T01:19:27;28.46;32.95
75985;DHT22;65033;44.660;37.758;2023-02-28T01:20:30;28.45;32.94
75985;DHT22;65033;44.660;37.758;2023-02-28T01:21:34;28.46;32.94
75985;DHT22;65033;44.660;37.758;2023-02-28T01:22:38;28.46;32.93
75985;DHT22;65033;44.660;37.758;2023-02-28T01:23:43;28.46;32.93
75985;DHT22;65033;44.660;37.758;2023-02-28T01:24:46;28.46;32.93
75985;DHT22;65033;44.660;37.758;2023-02-28T01:25:50;28.45;32.92
75985;DHT22;65033;44.660;37.758;2023-02-28T01:26:54;28.45;32.90
75985;DHT22;65033;44.660;37.758;2023-02-28T01:27:57;28.45;32.91
75985;DHT22;65033;44.660;37.758;2023-02-28T01:29:02;28.46;32.93
75985;DHT22;65033;44.660;37.758;2023-02-28T01:30:07;28.46;32.96
75985;DHT22;65033;44.660;37.758;2023-02-28T01:31:11;28.45;32.94
75985;DHT22;65033;44.660;37.758;2023-02-28T01:32:14;28.45;32.92
75985;DHT22;65033;44.660;37.758;2023-02-28T01:33:18;28.44;32.89
75985;DHT22;65033;44.660;37.758;2023-02-28T01:34:21;28.44;32.89
75985;DHT22;65033;44.660;37.758;2023-02-28T01:35:26;28.44;32.88
75985;DHT22;65033;44.660;37.758;2023-02-28T01:36:29;28.45;32.89
75985;DHT22;65033;44.660;37.758;2023-02-28T01:37:33;28.44;32.88
75985;DHT22;65033;44.660;37.758;2023-02-28T01:38:36;28.44;32.88
75985;DHT22;65033;44.660;37.758;2023-02-28T01:39:40;28.43;32.86
75985;DHT22;65033;44.660;37.758;2023-02-28T01:40:43;28.44;32.86
75985;DHT22;65033;44.660;37.758;2023-02-28T01:41:46;28.44;32.86
75985;DHT22;65033;44.660;37.758;2023-02-28T01:42:51;28.43;32.85
75985;DHT22;65033;44.660;37.758;2023-02-28T01:44:04;28.43;32.85
75985;DHT22;65033;44.660;37.758;2023-02-28T01:45:20;28.43;32.84
75985;DHT22;65033;44.660;37.758;2023-02-28T01:46:25;28.43;32.81
75985;DHT22;65033;44.660;37.758;2023-02-28T01:47:31;28.44;32.80
75985;DHT22;65033;44.660;37.758;2023-02-28T01:48:36;28.42;32.80
75985;DHT22;65033;44.660;37.758;2023-02-28T01:49:41;28.43;32.77
75985;DHT22;65033;44.660;37.758;2023-02-28T01:50:47;28.43;32.78
75985;DHT22;65033;44.660;37.758;2023-02-28T01:51:54;28.43;32.76
75985;DHT22;65033;44.660;37.758;2023-02-28T01:53:04;28.42;32.74
75985;DHT22;65033;44.660;37.758;2023-02-28T01:54:11;28.42;32.74
75985;DHT22;65033;44.660;37.758;2023-02-28T01:55:18;28.44;32.76
75985;DHT22;65033;44.660;37.758;2023-02-28T01:56:25;28.42;32.73
75985;DHT22;65033;44.660;37.758;2023-02-28T01:57:32;28.42;32.73
75985;DHT22;65033;44.660;37.758;2023-02-28T01:58:41;28.42;32.73
75985;DHT22;65033;44.660;37.758;2023-02-28T01:59:49;28.42;32.74
75985;DHT22;65033;44.660;37.758;2023-02-28T02:00:54;28.42;32.74
75985;DHT22;65033;44.660;37.758;2023-02-28T02:02:02;28.42;32.73
75985;DHT22;65033;44.660;37.758;2023-02-28T02:03:09;28.42;32.72
75985;DHT22;65033;44.660;37.758;2023-02-28T02:04:12;28.42;32.73
75985;DHT22;65033;44.660;37.758;2023-02-28T02:05:18;28.43;32.70
75985;DHT22;65033;44.660;37.758;2023-02-28T02:06:22;28.41;32.70
75985;DHT22;65033;44.660;37.758;2023-02-28T02:07:26;28.42;32.69
75985;DHT22;65033;44.660;37.758;2023-02-28T02:08:32;28.42;32.68
75985;DHT22;65033;44.660;37.758;2023-02-28T02:09:36;28.42;32.67
75985;DHT22;65033;44.660;37.758;2023-02-28T02:10:41;28.42;32.67
75985;DHT22;65033;44.660;37.758;2023-02-28T02:11:46;28.42;32.65
75985;DHT22;65033;44.660;37.758;2023-02-28T02:13:25;28.40;32.67
75985;DHT22;65033;44.660;37.758;2023-02-28T02:14:41;28.41;32.67
75985;DHT22;65033;44.660;37.758;2023-02-28T02:15:54;28.42;32.66
75985;DHT22;65033;44.660;37.758;2023-02-28T02:17:11;28.43;32.65
75985;DHT22;65033;44.660;37.758;2023-02-28T02:18:24;28.42;32.64
75985;DHT22;65033;44.660;37.758;2023-02-28T02:21:42;28.42;32.60
75985;DHT22;65033;44.660;37.758;2023-02-28T02:23:33;28.40;32.60
75985;DHT22;65033;44.660;37.758;2023-02-28T02:28:36;28.38;32.60
75985;DHT22;65033;44.660;37.758;2023-02-28T02:30:12;28.38;32.61
75985;DHT22;65033;44.660;37.758;2023-02-28T02:31:44;28.38;32.64
75985;DHT22;65033;44.660;37.758;2023-02-28T02:34:40;28.37;32.60
75985;DHT22;65033;44.660;37.758;2023-02-28T02:35:49;28.37;32.62
75985;DHT22;65033;44.660;37.758;2023-02-28T02:37:04;28.34;32.61
75985;DHT22;65033;44.660;37.758;2023-02-28T02:38:19;28.34;32.60
75985;DHT22;65033;44.660;37.758;2023-02-28T02:39:29;28.35;32.58
75985;DHT22;65033;44.660;37.758;2023-02-28T02:40:37;28.34;32.57
75985;DHT22;65033;44.660;37.758;2023-02-28T02:41:45;28.34;32.58
75985;DHT22;65033;44.660;37.758;2023-02-28T02:42:52;28.34;32.59
75985;DHT22;65033;44.660;37.758;2023-02-28T02:44:03;28.34;32.57
75985;DHT22;65033;44.660;37.758;2023-02-28T02:45:10;28.34;32.57
75985;DHT22;65033;44.660;37.758;2023-02-28T02:46:18;28.37;32.58
75985;DHT22;65033;44.660;37.758;2023-02-28T02:47:25;28.34;32.60
75985;DHT22;65033;44.660;37.758;2023-02-28T02:48:31;28.34;32.59
75985;DHT22;65033;44.660;37.758;2023-02-28T02:49:40;28.33;32.59
75985;DHT22;65033;44.660;37.758;2023-02-28T02:50:46;28.34;32.54
75985;DHT22;65033;44.660;37.758;2023-02-28T02:51:52;28.35;32.51
75985;DHT22;65033;44.660;37.758;2023-02-28T02:52:58;28.34;32.51
75985;DHT22;65033;44.660;37.758;2023-02-28T02:54:07;28.38;32.48
75985;DHT22;65033;44.660;37.758;2023-02-28T02:55:13;28.35;32.48
75985;DHT22;65033;44.660;37.758;2023-02-28T02:56:19;28.37;32.45
75985;DHT22;65033;44.660;37.758;2023-02-28T02:57:26;28.37;32.44
75985;DHT22;65033;44.660;37.758;2023-02-28T02:58:33;28.37;32.43
75985;DHT22;65033;44.660;37.758;2023-02-28T02:59:40;28.38;32.41
75985;DHT22;65033;44.660;37.758;2023-02-28T03:00:54;28.37;32.40
75985;DHT22;65033;44.660;37.758;2023-02-28T03:02:01;28.38;32.43
75985;DHT22;65033;44.660;37.758;2023-02-28T03:03:07;28.35;32.44
75985;DHT22;65033;44.660;37.758;2023-02-28T03:04:16;28.35;32.41
75985;DHT22;65033;44.660;37.758;2023-02-28T03:05:24;28.37;32.38
75985;DHT22;65033;44.660;37.758;2023-02-28T03:06:28;28.35;32.38
75985;DHT22;65033;44.660;37.758;2023-02-28T03:07:31;28.37;32.35
75985;DHT22;65033;44.660;37.758;2023-02-28T03:08:37;28.37;32.35
75985;DHT22;65033;44.660;37.758;2023-02-28T03:09:40;28.34;32.36
75985;DHT22;65033;44.660;37.758;2023-02-28T03:10:45;28.35;32.35
75985;DHT22;65033;44.660;37.758;2023-02-28T03:11:53;28.34;32.35
75985;DHT22;65033;44.660;37.758;2023-02-28T03:14:33;28.34;32.35
75985;DHT22;65033;44.660;37.758;2023-02-28T03:15:50;28.34;32.33
75985;DHT22;65033;44.660;37.758;2023-02-28T03:17:09;28.34;32.31
75985;DHT22;65033;44.660;37.758;2023-02-28T03:18:22;28.33;32.31
75985;DHT22;65033;44.660;37.758;2023-02-28T03:19:37;28.34;32.29
75985;DHT22;65033;44.660;37.758;2023-02-28T03:20:53;28.33;32.31
75985;DHT22;65033;44.660;37.758;2023-02-28T03:22:07;28.33;32.31
75985;DHT22;65033;44.660;37.758;2023-02-28T03:23:17;28.34;32.29
75985;DHT22;65033;44.660;37.758;2023-02-28T03:24:29;28.34;32.28
75985;DHT22;65033;44.660;37.758;2023-02-28T03:25:38;28.33;32.31
75985;DHT22;65033;44.660;37.758;2023-02-28T03:26:49;28.34;32.28
75985;DHT22;65033;44.660;37.758;2023-02-28T03:28:00;28.34;32.30
75985;DHT22;65033;44.660;37.758;2023-02-28T03:29:08;28.34;32.25
75985;DHT22;65033;44.660;37.758;2023-02-28T03:30:20;28.33;32.02
75985;DHT22;65033;44.660;37.758;2023-02-28T03:31:27;28.32;32.00
75985;DHT22;65033;44.660;37.758;2023-02-28T03:32:35;28.32;32.21
75985;DHT22;65033;44.660;37.758;2023-02-28T03:33:43;28.32;32.29
75985;DHT22;65033;44.660;37.758;2023-02-28T03:34:54;28.32;32.27
75985;DHT22;65033;44.660;37.758;2023-02-28T03:36:02;28.33;32.24
75985;DHT22;65033;44.660;37.758;2023-02-28T03:37:10;28.32;32.22
75985;DHT22;65033;44.660;37.758;2023-02-28T03:38:19;28.32;32.22
75985;DHT22;65033;44.660;37.758;2023-02-28T03:39:30;28.32;32.27
75985;DHT22;65033;44.660;37.758;2023-02-28T03:40:38;28.33;32.24
75985;DHT22;65033;44.660;37.758;2023-02-28T03:41:45;28.32;32.26
75985;DHT22;65033;44.660;37.758;2023-02-28T03:42:57;28.32;32.24
75985;DHT22;65033;44.660;37.758;2023-02-28T03:44:05;28.33;32.25
75985;DHT22;65033;44.660;37.758;2023-02-28T03:45:13;28.34;32.28
75985;DHT22;65033;44.660;37.758;2023-02-28T03:46:22;28.31;32.29
75985;DHT22;65033;44.660;37.758;2023-02-28T03:47:29;28.32;32.24
75985;DHT22;65033;44.660;37.758;2023-02-28T03:48:39;28.32;32.25
75985;DHT22;65033;44.660;37.758;2023-02-28T03:49:47;28.32;32.25
75985;DHT22;65033;44.660;37.758;2023-02-28T03:50:53;28.31;32.24
75985;DHT22;65033;44.660;37.758;2023-02-28T03:52:02;28.31;32.22
75985;DHT22;65033;44.660;37.758;2023-02-28T03:53:10;28.32;32.18
75985;DHT22;65033;44.660;37.758;2023-02-28T03:54:17;28.31;32.16
75985;DHT22;65033;44.660;37.758;2023-02-28T03:55:22;28.31;32.19
75985;DHT22;65033;44.660;37.758;2023-02-28T03:56:31;28.33;32.15
75985;DHT22;65033;44.660;37.758;2023-02-28T03:57:39;28.32;32.19
75985;DHT22;65033;44.660;37.758;2023-02-28T03:58:49;28.31;32.24
75985;DHT22;65033;44.660;37.758;2023-02-28T03:59:56;28.32;32.28
75985;DHT22;65033;44.660;37.758;2023-02-28T04:01:07;28.32;32.27
75985;DHT22;65033;44.660;37.758;2023-02-28T04:02:13;28.32;32.27
75985;DHT22;65033;44.660;37.758;2023-02-28T04:03:16;28.32;32.28
75985;DHT22;65033;44.660;37.758;2023-02-28T04:04:20;28.32;32.28
75985;DHT22;65033;44.660;37.758;2023-02-28T04:05:24;28.31;32.29
75985;DHT22;65033;44.660;37.758;2023-02-28T04:06:27;28.31;32.27
75985;DHT22;65033;44.660;37.758;2023-02-28T04:07:36;28.31;32.26
75985;DHT22;65033;44.660;37.758;2023-02-28T04:08:40;28.32;32.26
75985;DHT22;65033;44.660;37.758;2023-02-28T04:09:43;28.34;32.26
75985;DHT22;65033;44.660;37.758;2023-02-28T04:10:51;28.32;32.22
75985;DHT22;65033;44.660;37.758;2023-02-28T04:11:56;28.32;32.24
75985;DHT22;65033;44.660;37.758;2023-02-28T04:12:59;28.32;32.23
75985;DHT22;65033;44.660;37.758;2023-02-28T04:14:03;28.32;32.25
75985;DHT22;65033;44.660;37.758;2023-02-28T04:15:08;28.33;32.25
75985;DHT22;65033;44.660;37.758;2023-02-28T04:16:11;28.31;32.25
75985;DHT22;65033;44.660;37.758;2023-02-28T04:17:26;28.33;32.29
75985;DHT22;65033;44.660;37.758;2023-02-28T04:18:30;28.32;32.25
75985;DHT22;65033;44.660;37.758;2023-02-28T04:19:33;28.32;32.27
75985;DHT22;65033;44.660;37.758;2023-02-28T04:20:37;28.32;32.31
75985;DHT22;65033;44.660;37.758;2023-02-28T04:21:42;28.34;32.19
75985;DHT22;65033;44.660;37.758;2023-02-28T04:22:47;28.34;31.64
75985;DHT22;65033;44.660;37.758;2023-02-28T04:23:50;28.32;31.56
75985;DHT22;65033;44.660;37.758;2023-02-28T04:24:53;28.32;31.36
75985;DHT22;65033;44.660;37.758;2023-02-28T04:25:57;28.32;31.52
75985;DHT22;65033;44.660;37.758;2023-02-28T04:27:01;28.32;31.82
75985;DHT22;65033;44.660;37.758;2023-02-28T04:28:04;28.31;31.96
75985;DHT22;65033;44.660;37.758;2023-02-28T04:29:07;28.31;32.03
75985;DHT22;65033;44.660;37.758;2023-02-28T04:30:11;28.32;31.99
75985;DHT22;65033;44.660;37.758;2023-02-28T04:31:15;28.32;31.95
75985;DHT22;65033;44.660;37.758;2023-02-28T04:32:18;28.32;32.02
75985;DHT22;65033;44.660;37.758;2023-02-28T04:33:21;28.32;31.99
75985;DHT22;65033;44.660;37.758;2023-02-28T04:34:25;28.32;31.95
75985;DHT22;65033;44.660;37.758;2023-02-28T04:35:29;28.33;32.00
75985;DHT22;65033;44.660;37.758;2023-02-28T04:36:32;28.33;32.04
75985;DHT22;65033;44.660;37.758;2023-02-28T04:37:35;28.33;32.05
75985;DHT22;65033;44.660;37.758;2023-02-28T04:38:41;28.34;32.15
75985;DHT22;65033;44.660;37.758;2023-02-28T04:39:44;28.34;32.28
75985;DHT22;65033;44.660;37.758;2023-02-28T04:40:47;28.34;32.30
75985;DHT22;65033;44.660;37.758;2023-02-28T04:41:50;28.34;32.39
75985;DHT22;65033;44.660;37.758;2023-02-28T04:42:54;28.35;32.54
75985;DHT22;65033;44.660;37.758;2023-02-28T04:43:57;28.35;32.70
75985;DHT22;65033;44.660;37.758;2023-02-28T04:45:01;28.38;32.76
75985;DHT22;65033;44.660;37.758;2023-02-28T04:46:04;28.38;32.80
75985;DHT22;65033;44.660;37.758;2023-02-28T04:47:08;28.38;32.85
75985;DHT22;65033;44.660;37.758;2023-02-28T04:48:11;28.38;32.90
75985;DHT22;65033;44.660;37.758;2023-02-28T04:49:15;28.39;32.93
75985;DHT22;65033;44.660;37.758;2023-02-28T04:50:18;28.39;33.00
75985;DHT22;65033;44.660;37.758;2023-02-28T04:51:21;28.40;33.05
75985;DHT22;65033;44.660;37.758;2023-02-28T04:52:25;28.39;33.09
75985;DHT22;65033;44.660;37.758;2023-02-28T04:53:30;28.40;33.08
75985;DHT22;65033;44.660;37.758;2023-02-28T04:54:34;28.41;33.08
75985;DHT22;65033;44.660;37.758;2023-02-28T04:55:38;28.41;33.05
75985;DHT22;65033;44.660;37.758;2023-02-28T04:56:43;28.42;33.06
75985;DHT22;65033;44.660;37.758;2023-02-28T04:57:46;28.41;33.05
75985;DHT22;65033;44.660;37.758;2023-02-28T04:58:49;28.42;33.12
75985;DHT22;65033;44.660;37.758;2023-02-28T04:59:54;28.41;33.15
75985;DHT22;65033;44.660;37.758;2023-02-28T05:01:02;28.44;33.28
75985;DHT22;65033;44.660;37.758;2023-02-28T05:02:07;28.43;33.20
75985;DHT22;65033;44.660;37.758;2023-02-28T05:03:10;28.44;33.22
75985;DHT22;65033;44.660;37.758;2023-02-28T05:04:14;28.43;33.14
75985;DHT22;65033;44.660;37.758;2023-02-28T05:05:17;28.45;33.11
75985;DHT22;65033;44.660;37.758;2023-02-28T05:06:22;28.44;33.15
75985;DHT22;65033;44.660;37.758;2023-02-28T05:07:26;28.44;33.34
75985;DHT22;65033;44.660;37.758;2023-02-28T05:08:30;28.45;33.38
75985;DHT22;65033;44.660;37.758;2023-02-28T05:09:34;28.45;33.41
75985;DHT22;65033;44.660;37.758;2023-02-28T05:10:38;28.45;33.44
75985;DHT22;65033;44.660;37.758;2023-02-28T05:11:41;28.46;33.48
75985;DHT22;65033;44.660;37.758;2023-02-28T05:12:44;28.45;33.45
75985;DHT22;65033;44.660;37.758;2023-02-28T05:13:48;28.45;33.49
75985;DHT22;65033;44.660;37.758;2023-02-28T05:14:51;28.45;33.54
75985;DHT22;65033;44.660;37.758;2023-02-28T05:15:55;28.46;33.62
75985;DHT22;65033;44.660;37.758;2023-02-28T05:16:58;28.46;33.71
75985;DHT22;65033;44.660;37.758;2023-02-28T05:18:01;28.47;33.70
75985;DHT22;65033;44.660;37.758;2023-02-28T05:19:05;28.48;33.72
75985;DHT22;65033;44.660;37.758;2023-02-28T05:20:10;28.49;33.73
75985;DHT22;65033;44.660;37.758;2023-02-28T05:21:25;28.50;33.75
75985;DHT22;65033;44.660;37.758;2023-02-28T05:22:29;28.50;33.74
75985;DHT22;65033;44.660;37.758;2023-02-28T05:23:32;28.48;33.76
75985;DHT22;65033;44.660;37.758;2023-02-28T05:24:37;28.49;33.79
75985;DHT22;65033;44.660;37.758;2023-02-28T05:25:40;28.49;33.78
75985;DHT22;65033;44.660;37.758;2023-02-28T05:26:43;28.50;33.78
75985;DHT22;65033;44.660;37.758;2023-02-28T05:27:47;28.49;33.80
75985;DHT22;65033;44.660;37.758;2023-02-28T05:28:50;28.50;33.79
75985;DHT22;65033;44.660;37.758;2023-02-28T05:29:54;28.50;33.74
75985;DHT22;65033;44.660;37.758;2023-02-28T05:30:57;28.52;33.76
75985;DHT22;65033;44.660;37.758;2023-02-28T05:32:01;28.52;33.81
75985;DHT22;65033;44.660;37.758;2023-02-28T05:33:05;28.50;33.57
75985;DHT22;65033;44.660;37.758;2023-02-28T05:34:08;28.52;33.44
75985;DHT22;65033;44.660;37.758;2023-02-28T05:35:14;28.54;33.51
75985;DHT22;65033;44.660;37.758;2023-02-28T05:36:17;28.54;33.63
75985;DHT22;65033;44.660;37.758;2023-02-28T05:37:20;28.54;33.67
75985;DHT22;65033;44.660;37.758;2023-02-28T05:38:24;28.54;33.62
75985;DHT22;65033;44.660;37.758;2023-02-28T05:39:27;28.56;33.60
75985;DHT22;65033;44.660;37.758;2023-02-28T05:40:32;28.56;33.54
75985;DHT22;65033;44.660;37.758;2023-02-28T05:41:35;28.57;33.56
75985;DHT22;65033;44.660;37.758;2023-02-28T05:42:39;28.59;33.57
75985;DHT22;65033;44.660;37.758;2023-02-28T05:43:42;28.61;33.46
75985;DHT22;65033;44.660;37.758;2023-02-28T05:44:46;28.63;33.43
75985;DHT22;65033;44.660;37.758;2023-02-28T05:45:49;28.64;33.41
75985;DHT22;65033;44.660;37.758;2023-02-28T05:46:53;28.65;33.41
75985;DHT22;65033;44.660;37.758;2023-02-28T05:47:56;28.67;33.43
75985;DHT22;65033;44.660;37.758;2023-02-28T05:48:59;28.68;33.41
75985;DHT22;65033;44.660;37.758;2023-02-28T05:50:04;28.70;33.36
75985;DHT22;65033;44.660;37.758;2023-02-28T05:51:08;28.71;33.32
75985;DHT22;65033;44.660;37.758;2023-02-28T05:52:12;28.72;33.34
75985;DHT22;65033;44.660;37.758;2023-02-28T05:53:15;28.72;33.36
75985;DHT22;65033;44.660;37.758;2023-02-28T05:54:18;28.73;33.34
75985;DHT22;65033;44.660;37.758;2023-02-28T05:55:22;28.75;33.22
75985;DHT22;65033;44.660;37.758;2023-02-28T05:56:26;28.75;33.24
75985;DHT22;65033;44.660;37.758;2023-02-28T05:57:29;28.77;33.21
75985;DHT22;65033;44.660;37.758;2023-02-28T05:58:33;28.78;33.17
75985;DHT22;65033;44.660;37.758;2023-02-28T05:59:37;28.80;33.14
75985;DHT22;65033;44.660;37.758;2023-02-28T06:00:43;28.80;33.16
75985;DHT22;65033;44.660;37.758;2023-02-28T06:01:47;28.83;33.18
75985;DHT22;65033;44.660;37.758;2023-02-28T06:02:54;28.83;33.21
75985;DHT22;65033;44.660;37.758;2023-02-28T06:04:01;28.84;33.34
75985;DHT22;65033;44.660;37.758;2023-02-28T06:05:05;28.85;33.28
75985;DHT22;65033;44.660;37.758;2023-02-28T06:06:08;28.85;33.28
75985;DHT22;65033;44.660;37.758;2023-02-28T06:07:12;28.88;33.28
75985;DHT22;65033;44.660;37.758;2023-02-28T06:08:15;28.88;33.22
75985;DHT22;65033;44.660;37.758;2023-02-28T06:09:19;28.90;33.37
75985;DHT22;65033;44.660;37.758;2023-02-28T06:10:23;28.91;33.22
75985;DHT22;65033;44.660;37.758;2023-02-28T06:11:27;28.91;33.10
75985;DHT22;65033;44.660;37.758;2023-02-28T06:12:31;28.92;33.19
75985;DHT22;65033;44.660;37.758;2023-02-28T06:13:34;28.92;33.13
75985;DHT22;65033;44.660;37.758;2023-02-28T06:14:39;28.93;33.20
75985;DHT22;65033;44.660;37.758;2023-02-28T06:15:43;28.97;33.04
75985;DHT22;65033;44.660;37.758;2023-02-28T06:16:47;28.95;32.85
75985;DHT22;65033;44.660;37.758;2023-02-28T06:17:50;28.98;32.87
75985;DHT22;65033;44.660;37.758;2023-02-28T06:18:57;28.98;32.98
75985;DHT22;65033;44.660;37.758;2023-02-28T06:20:00;28.99;32.93
75985;DHT22;65033;44.660;37.758;2023-02-28T06:21:04;29.00;32.93
75985;DHT22;65033;44.660;37.758;2023-02-28T06:22:07;29.01;32.89
75985;DHT22;65033;44.660;37.758;2023-02-28T06:23:10;29.01;32.80
75985;DHT22;65033;44.660;37.758;2023-02-28T06:24:14;29.02;32.71
75985;DHT22;65033;44.660;37.758;2023-02-28T06:25:17;29.03;32.68
75985;DHT22;65033;44.660;37.758;2023-02-28T06:26:21;29.03;32.47
75985;DHT22;65033;44.660;37.758;2023-02-28T06:27:26;29.04;32.57
75985;DHT22;65033;44.660;37.758;2023-02-28T06:28:29;29.04;32.49
75985;DHT22;65033;44.660;37.758;2023-02-28T06:29:35;29.06;32.46
75985;DHT22;65033;44.660;37.758;2023-02-28T06:30:39;29.06;32.42
75985;DHT22;65033;44.660;37.758;2023-02-28T06:31:42;29.07;32.22
75985;DHT22;65033;44.660;37.758;2023-02-28T06:32:46;29.08;32.31
75985;DHT22;65033;44.660;37.758;2023-02-28T06:33:52;29.08;32.40
75985;DHT22;65033;44.660;37.758;2023-02-28T06:34:55;29.08;32.31
75985;DHT22;65033;44.660;37.758;2023-02-28T06:36:00;29.11;32.28
75985;DHT22;65033;44.660;37.758;2023-02-28T06:37:04;29.12;32.28
75985;DHT22;65033;44.660;37.758;2023-02-28T06:38:08;29.12;32.18
75985;DHT22;65033;44.660;37.758;2023-02-28T06:39:11;29.11;32.26
75985;DHT22;65033;44.660;37.758;2023-02-28T06:40:15;29.12;32.13
75985;DHT22;65033;44.660;37.758;2023-02-28T06:41:18;29.13;32.22
75985;DHT22;65033;44.660;37.758;2023-02-28T06:42:21;29.13;32.28
75985;DHT22;65033;44.660;37.758;2023-02-28T06:43:28;29.14;32.25
75985;DHT22;65033;44.660;37.758;2023-02-28T06:44:32;29.14;32.12
75985;DHT22;65033;44.660;37.758;2023-02-28T06:45:41;29.15;32.05
75985;DHT22;65033;44.660;37.758;2023-02-28T06:46:45;29.15;32.17
75985;DHT22;65033;44.660;37.758;2023-02-28T06:47:49;29.16;32.17
75985;DHT22;65033;44.660;37.758;2023-02-28T06:48:54;29.16;32.06
75985;DHT22;65033;44.660;37.758;2023-02-28T06:49:58;29.15;32.01
75985;DHT22;65033;44.660;37.758;2023-02-28T06:51:03;29.16;32.04
75985;DHT22;65033;44.660;37.758;2023-02-28T06:52:06;29.18;31.94
75985;DHT22;65033;44.660;37.758;2023-02-28T06:53:10;29.18;32.09
75985;DHT22;65033;44.660;37.758;2023-02-28T06:54:14;29.18;31.87
75985;DHT22;65033;44.660;37.758;2023-02-28T06:55:17;29.18;31.89
75985;DHT22;65033;44.660;37.758;2023-02-28T06:56:20;29.20;31.80
75985;DHT22;65033;44.660;37.758;2023-02-28T06:57:24;29.19;31.80